createdAt,value
2023-05-23T00:01:19.853Z,18.92
2023-05-23T00:03:49.392Z,18.65
2023-05-23T00:06:22.146Z,18.64
2023-05-23T00:08:51.680Z,18.07
2023-05-23T00:11:20.375Z,18.85
2023-05-23T00:13:48.273Z,18.36
2023-05-23T00:16:16.459Z,18.40
2023-05-23T00:18:45.820Z,18.76
2023-05-23T00:21:14.090Z,19.13
2023-05-23T00:23:42.293Z,18.72
2023-05-23T00:26:11.559Z,19.03
2023-05-23T00:28:43.376Z,18.77
2023-05-23T00:31:11.240Z,18.34
2023-05-23T00:33:39.034Z,18.23
2023-05-23T00:36:07.174Z,18.53
2023-05-23T00:38:34.960Z,18.84
2023-05-23T00:41:03.162Z,18.96
2023-05-23T00:43:32.618Z,18.84
2023-05-23T00:46:01.569Z,18.53
2023-05-23T00:48:30.144Z,18.64
2023-05-23T00:50:58.758Z,18.46
2023-05-23T00:53:26.893Z,18.17
2023-05-23T00:55:55.128Z,18.52
2023-05-23T00:58:23.067Z,18.38
2023-05-23T01:00:54.520Z,18.14
2023-05-23T01:03:23.871Z,18.73
2023-05-23T01:05:52.850Z,18.59
2023-05-23T01:08:20.787Z,18.76
2023-05-23T01:10:48.948Z,18.26
2023-05-23T01:13:24.940Z,17.93
2023-05-23T01:16:02.039Z,18.08
2023-05-23T01:18:38.229Z,17.63
2023-05-23T01:21:10.791Z,17.79
2023-05-23T01:24:14.337Z,18.12
2023-05-23T01:27:01.285Z,17.73
2023-05-23T01:29:35.471Z,17.52
2023-05-23T01:32:06.739Z,17.57
2023-05-23T01:34:37.714Z,17.51
2023-05-23T01:37:09.721Z,17.20
2023-05-23T01:39:37.973Z,17.28
2023-05-23T01:42:06.389Z,17.65
2023-05-23T01:44:36.852Z,17.71
2023-05-23T01:47:06.847Z,17.92
2023-05-23T01:49:36.386Z,18.10
2023-05-23T01:52:05.995Z,18.46
2023-05-23T01:54:35.454Z,18.40
2023-05-23T01:57:04.083Z,18.33
2023-05-23T01:59:33.309Z,18.25
2023-05-23T02:02:02.685Z,18.17
2023-05-23T02:04:31.677Z,18.13
2023-05-23T02:07:00.070Z,18.86
2023-05-23T02:09:28.024Z,18.74
2023-05-23T02:11:55.952Z,18.21
2023-05-23T02:14:23.987Z,18.27
2023-05-23T02:16:53.910Z,18.53
2023-05-23T02:19:23.295Z,18.32
2023-05-23T02:21:51.151Z,18.51
2023-05-23T02:24:19.479Z,18.67
2023-05-23T02:26:47.372Z,18.56
2023-05-23T02:29:15.176Z,18.60
2023-05-23T02:31:43.278Z,18.53
2023-05-23T02:34:11.321Z,18.73
2023-05-23T02:36:42.069Z,18.61
2023-05-23T02:39:11.427Z,18.57
2023-05-23T02:41:39.375Z,18.31
2023-05-23T02:44:07.275Z,17.70
2023-05-23T02:46:35.174Z,18.45
2023-05-23T02:49:04.386Z,18.51
2023-05-23T02:51:32.669Z,18.38
2023-05-23T02:54:01.917Z,17.95
2023-05-23T02:56:30.623Z,18.15
2023-05-23T02:58:58.448Z,18.32
2023-05-23T03:01:26.440Z,18.42
2023-05-23T03:03:54.324Z,18.05
2023-05-23T03:06:23.005Z,18.32
2023-05-23T03:08:51.789Z,18.40
2023-05-23T03:11:22.725Z,17.85
2023-05-23T03:13:50.619Z,17.97
2023-05-23T03:16:18.504Z,18.37
2023-05-23T03:18:46.431Z,18.33
2023-05-23T03:21:14.266Z,18.71
2023-05-23T03:23:42.037Z,18.47
2023-05-23T03:26:09.885Z,17.95
2023-05-23T03:28:39.022Z,18.21
2023-05-23T03:31:06.957Z,18.14
2023-05-23T03:33:34.717Z,18.37
2023-05-23T03:36:02.651Z,18.03
2023-05-23T03:38:30.517Z,18.25
2023-05-23T03:40:58.339Z,18.37
2023-05-23T03:43:26.165Z,18.30
2023-05-23T03:45:55.886Z,18.20
2023-05-23T03:48:23.750Z,18.45
2023-05-23T03:50:52.137Z,18.06
2023-05-23T03:53:20.007Z,18.69
2023-05-23T03:55:47.809Z,18.19
2023-05-23T03:58:15.651Z,18.09
2023-05-23T04:00:46.511Z,17.90
2023-05-23T04:03:17.959Z,17.94
2023-05-23T04:05:46.195Z,17.76
2023-05-23T04:08:15.743Z,18.05
2023-05-23T04:10:43.715Z,18.19
2023-05-23T04:13:14.144Z,17.94
2023-05-23T04:15:43.889Z,18.24
2023-05-23T04:18:15.041Z,18.73
2023-05-23T04:20:44.935Z,18.12
2023-05-23T04:23:13.183Z,17.81
2023-05-23T04:25:43.221Z,18.21
2023-05-23T04:28:17.749Z,17.80
2023-05-23T04:30:46.319Z,18.18
2023-05-23T04:33:17.885Z,18.47
2023-05-23T04:35:49.308Z,18.12
2023-05-23T04:38:17.205Z,17.80
2023-05-23T04:40:45.565Z,18.44
2023-05-23T04:43:33.605Z,18.22
2023-05-23T04:46:16.379Z,18.04
2023-05-23T04:48:45.766Z,17.90
2023-05-23T04:51:15.794Z,17.88
2023-05-23T04:53:52.747Z,17.48
2023-05-23T04:56:22.314Z,17.67
2023-05-23T04:58:50.544Z,17.50
2023-05-23T05:01:18.495Z,18.30
2023-05-23T05:03:47.405Z,18.36
2023-05-23T05:06:17.601Z,18.31
2023-05-23T05:08:45.539Z,18.19
2023-05-23T05:11:14.028Z,17.75
2023-05-23T05:13:43.068Z,17.72
2023-05-23T05:16:10.935Z,17.48
2023-05-23T05:18:40.313Z,18.55
2023-05-23T05:21:08.418Z,17.82
2023-05-23T05:23:39.841Z,17.68
2023-05-23T05:26:09.448Z,17.68
2023-05-23T05:28:38.240Z,17.94
2023-05-23T05:31:06.338Z,18.04
2023-05-23T05:33:37.643Z,18.17
2023-05-23T05:36:16.234Z,18.49
2023-05-23T05:38:46.206Z,18.54
2023-05-23T05:41:14.210Z,17.46
2023-05-23T05:43:48.977Z,17.70
2023-05-23T05:46:16.957Z,17.34
2023-05-23T05:48:45.229Z,17.55
2023-05-23T05:51:14.380Z,17.29
2023-05-23T05:53:43.238Z,17.78
2023-05-23T05:56:12.672Z,17.51
2023-05-23T05:58:40.562Z,18.00
2023-05-23T06:01:10.118Z,18.52
2023-05-23T06:03:38.124Z,17.75
2023-05-23T06:06:06.853Z,17.68
2023-05-23T06:08:34.775Z,18.00
2023-05-23T06:11:02.690Z,18.28
2023-05-23T06:13:32.933Z,17.97
2023-05-23T06:16:00.898Z,17.99
2023-05-23T06:18:28.848Z,17.86
2023-05-23T06:20:57.363Z,17.98
2023-05-23T06:23:25.281Z,18.47
2023-05-23T06:25:53.305Z,17.93
2023-05-23T06:28:21.186Z,17.68
2023-05-23T06:30:50.735Z,17.73
2023-05-23T06:33:18.566Z,17.44
2023-05-23T06:35:46.492Z,16.90
2023-05-23T06:38:15.821Z,17.19
2023-05-23T06:40:45.430Z,17.09
2023-05-23T06:43:14.290Z,17.91
2023-05-23T06:45:47.474Z,16.85
2023-05-23T06:48:16.979Z,17.15
2023-05-23T06:50:45.931Z,17.30
2023-05-23T06:53:18.846Z,17.38
2023-05-23T06:55:47.853Z,17.28
2023-05-23T06:58:18.630Z,17.17
2023-05-23T07:00:47.537Z,17.82
2023-05-23T07:03:41.285Z,17.54
2023-05-23T07:06:09.969Z,17.02
2023-05-23T07:08:38.561Z,17.35
2023-05-23T07:11:07.107Z,17.19
2023-05-23T07:13:39.629Z,16.94
2023-05-23T07:16:07.789Z,16.70
2023-05-23T07:18:42.276Z,16.81
2023-05-23T07:21:10.271Z,16.99
2023-05-23T07:23:38.360Z,16.94
2023-05-23T07:26:09.660Z,17.09
2023-05-23T07:28:51.417Z,17.00
2023-05-23T07:31:20.028Z,16.76
2023-05-23T07:33:49.301Z,16.97
2023-05-23T07:36:23.623Z,16.91
2023-05-23T07:38:53.282Z,16.97
2023-05-23T07:41:22.082Z,16.96
2023-05-23T07:43:50.064Z,16.76
2023-05-23T07:46:18.117Z,16.38
2023-05-23T07:48:46.402Z,16.92
2023-05-23T07:51:21.324Z,17.41
2023-05-23T07:53:50.313Z,17.28
2023-05-23T07:56:19.749Z,17.46
2023-05-23T07:58:47.751Z,17.54
2023-05-23T08:01:15.590Z,17.29
2023-05-23T08:04:09.715Z,17.50
2023-05-23T08:07:00.931Z,16.92
2023-05-23T08:09:40.273Z,17.40
2023-05-23T08:12:09.359Z,17.69
2023-05-23T08:14:49.970Z,17.46
2023-05-23T08:17:25.100Z,17.55
2023-05-23T08:19:53.787Z,17.38
2023-05-23T08:22:22.954Z,17.31
2023-05-23T08:24:50.855Z,17.73
2023-05-23T08:27:19.213Z,17.96
2023-05-23T08:29:51.174Z,17.37
2023-05-23T08:32:19.106Z,17.31
2023-05-23T08:34:47.268Z,17.80
2023-05-23T08:37:15.094Z,17.63
2023-05-23T08:39:45.279Z,17.02
2023-05-23T08:42:31.910Z,17.56
2023-05-23T08:45:00.302Z,18.08
2023-05-23T08:47:30.096Z,18.16
2023-05-23T08:50:04.748Z,18.39
2023-05-23T08:52:34.798Z,17.56
2023-05-23T08:55:04.270Z,17.26
2023-05-23T08:57:32.837Z,17.32
2023-05-23T09:00:14.527Z,17.20
2023-05-23T09:02:45.069Z,16.94
2023-05-23T09:05:27.709Z,17.37
2023-05-23T09:07:56.896Z,17.66
2023-05-23T09:10:29.932Z,16.87
2023-05-23T09:12:58.633Z,17.08
2023-05-23T09:15:27.520Z,16.72
2023-05-23T09:18:01.690Z,16.54
2023-05-23T09:20:30.016Z,17.28
2023-05-23T09:23:03.671Z,17.82
2023-05-23T09:25:33.969Z,17.64
2023-05-23T09:28:01.817Z,17.58
2023-05-23T09:30:35.473Z,17.84
2023-05-23T09:33:05.857Z,17.84
2023-05-23T09:35:34.760Z,17.74
2023-05-23T09:38:02.668Z,17.74
2023-05-23T09:40:34.452Z,17.54
2023-05-23T09:43:07.486Z,17.26
2023-05-23T09:45:36.126Z,17.01
2023-05-23T09:48:04.225Z,16.93
2023-05-23T09:50:34.855Z,15.98
2023-05-23T09:53:04.619Z,16.31
2023-05-23T09:55:33.897Z,15.76
2023-05-23T09:58:02.296Z,15.82
2023-05-23T10:00:32.116Z,16.35
2023-05-23T10:03:10.911Z,16.01
2023-05-23T10:05:45.068Z,16.72
2023-05-23T10:08:17.186Z,17.62
2023-05-23T10:11:32.482Z,17.67
2023-05-23T10:14:03.576Z,17.48
2023-05-23T10:16:43.585Z,17.17
2023-05-23T10:19:24.476Z,17.12
2023-05-23T10:21:59.482Z,16.67
2023-05-23T10:24:28.652Z,16.67
2023-05-23T10:26:57.700Z,16.64
2023-05-23T10:29:27.684Z,16.74
2023-05-23T10:31:57.677Z,16.80
2023-05-23T10:34:33.656Z,16.60
2023-05-23T10:37:04.189Z,16.40
2023-05-23T10:39:47.556Z,16.41
2023-05-23T10:42:20.864Z,16.83
2023-05-23T10:44:50.078Z,15.94
2023-05-23T10:47:27.755Z,16.73
2023-05-23T10:49:56.407Z,16.86
2023-05-23T10:52:27.585Z,17.37
2023-05-23T10:54:56.886Z,17.78
2023-05-23T10:57:28.028Z,18.30
2023-05-23T10:59:57.399Z,19.79
2023-05-23T11:02:28.242Z,20.07
2023-05-23T11:05:22.138Z,19.90
2023-05-23T11:08:08.830Z,19.53
2023-05-23T11:10:55.211Z,19.19
2023-05-23T11:13:23.837Z,20.82
2023-05-23T11:15:53.237Z,22.29
2023-05-23T11:18:23.146Z,22.96
2023-05-23T11:20:54.469Z,20.53
2023-05-23T11:23:23.279Z,19.43
2023-05-23T11:25:53.801Z,18.77
2023-05-23T11:28:22.066Z,18.34
2023-05-23T11:30:50.969Z,17.95
2023-05-23T11:33:20.995Z,17.93
2023-05-23T11:35:51.757Z,18.45
2023-05-23T11:38:19.803Z,18.09
2023-05-23T11:40:48.175Z,18.34
2023-05-23T11:43:18.331Z,18.95
2023-05-23T11:45:47.470Z,19.12
2023-05-23T11:48:17.812Z,17.49
2023-05-23T11:50:49.071Z,18.48
2023-05-23T11:53:20.514Z,18.80
2023-05-23T11:55:54.372Z,18.91
2023-05-23T11:58:23.348Z,18.69
2023-05-23T12:00:53.656Z,18.79
2023-05-23T12:03:23.114Z,18.42
2023-05-23T12:05:52.445Z,19.07
2023-05-23T12:08:20.260Z,18.83
2023-05-23T12:10:53.509Z,18.45
2023-05-23T12:13:24.808Z,18.09
2023-05-23T12:15:56.151Z,17.96
2023-05-23T12:18:24.596Z,17.74
2023-05-23T12:20:54.079Z,18.57
2023-05-23T12:23:23.326Z,19.72
2023-05-23T12:25:53.046Z,20.48
2023-05-23T12:28:21.040Z,21.58
2023-05-23T12:30:49.609Z,21.24
2023-05-23T12:33:20.058Z,22.93
2023-05-23T12:35:47.972Z,22.16
2023-05-23T12:38:18.324Z,22.59
2023-05-23T12:40:46.220Z,21.00
2023-05-23T12:43:16.708Z,21.37
2023-05-23T12:45:44.550Z,24.31
2023-05-23T12:48:12.795Z,24.90
2023-05-23T12:50:40.824Z,23.71
2023-05-23T12:53:08.646Z,24.32
2023-05-23T12:55:38.014Z,25.44
2023-05-23T12:58:06.709Z,24.62
2023-05-23T13:00:34.586Z,25.41
2023-05-23T13:03:02.505Z,26.68
2023-05-23T13:05:30.334Z,29.62
2023-05-23T13:07:59.485Z,27.82
2023-05-23T13:10:28.904Z,27.01
2023-05-23T13:12:59.381Z,25.79
2023-05-23T13:15:27.221Z,24.56
2023-05-23T13:17:55.110Z,25.60
2023-05-23T13:20:23.034Z,25.61
2023-05-23T13:22:50.904Z,24.70
2023-05-23T13:25:18.786Z,22.69
2023-05-23T13:27:48.258Z,21.83
2023-05-23T13:30:18.493Z,21.08
2023-05-23T13:32:46.493Z,21.07
2023-05-23T13:35:14.512Z,21.28
2023-05-23T13:37:42.375Z,21.46
2023-05-23T13:40:13.973Z,22.02
2023-05-23T13:42:41.817Z,21.74
2023-05-23T13:45:10.521Z,20.58
2023-05-23T13:47:39.810Z,22.36
2023-05-23T13:50:09.177Z,26.46
2023-05-23T13:52:37.141Z,29.94
2023-05-23T13:55:05.861Z,27.83
2023-05-23T13:57:33.802Z,28.34
2023-05-23T14:00:03.059Z,28.37
2023-05-23T14:02:32.928Z,26.93
2023-05-23T14:05:02.216Z,25.19
2023-05-23T14:07:30.054Z,24.05
2023-05-23T14:09:59.621Z,23.17
2023-05-23T14:12:27.517Z,23.22
2023-05-23T14:14:55.427Z,25.09
2023-05-23T14:17:23.196Z,27.01
2023-05-23T14:19:51.532Z,26.16
2023-05-23T14:22:20.838Z,24.44
2023-05-23T14:24:48.734Z,24.84
2023-05-23T14:27:16.617Z,23.42
2023-05-23T14:29:46.581Z,22.97
2023-05-23T14:32:14.776Z,23.00
2023-05-23T14:34:42.694Z,23.15
2023-05-23T14:37:10.538Z,23.30
2023-05-23T14:39:41.376Z,24.75
2023-05-23T14:42:09.629Z,27.21
2023-05-23T14:44:37.476Z,25.36
2023-05-23T14:47:05.819Z,24.55
2023-05-23T14:49:33.731Z,26.22
2023-05-23T14:52:01.624Z,24.32
2023-05-23T14:54:29.437Z,22.75
2023-05-23T14:56:58.630Z,20.78
2023-05-23T14:59:26.403Z,20.70
2023-05-23T15:01:54.290Z,20.26
2023-05-23T15:04:22.275Z,20.67
2023-05-23T15:06:50.988Z,20.57
2023-05-23T15:09:19.158Z,22.53
2023-05-23T15:11:49.302Z,24.14
2023-05-23T15:14:18.520Z,22.26
2023-05-23T15:16:48.653Z,25.37
2023-05-23T15:19:16.612Z,25.26
2023-05-23T15:21:50.394Z,25.38
2023-05-23T15:24:19.230Z,25.30
2023-05-23T15:26:47.202Z,23.61
2023-05-23T15:29:18.042Z,23.71
2023-05-23T15:31:47.302Z,24.10
2023-05-23T15:34:15.227Z,25.00
2023-05-23T15:36:43.060Z,26.64
2023-05-23T15:39:12.037Z,27.92
2023-05-23T15:41:39.934Z,27.82
2023-05-23T15:44:07.835Z,26.29
2023-05-23T15:46:36.936Z,26.80
2023-05-23T15:49:21.286Z,26.55
2023-05-23T15:51:54.099Z,28.14
2023-05-23T15:54:21.983Z,25.90
2023-05-23T15:56:49.760Z,24.29
2023-05-23T15:59:17.617Z,22.38
2023-05-23T16:01:45.587Z,22.13
2023-05-23T16:04:15.106Z,22.20
2023-05-23T16:06:43.106Z,23.56
2023-05-23T16:09:10.959Z,23.36
2023-05-23T16:11:38.810Z,21.86
2023-05-23T16:14:07.074Z,21.27
2023-05-23T16:16:35.253Z,20.83
2023-05-23T16:19:03.906Z,21.49
2023-05-23T16:21:33.297Z,21.63
2023-05-23T16:24:01.165Z,21.53
2023-05-23T16:26:29.179Z,23.41
2023-05-23T16:28:57.092Z,26.43
2023-05-23T16:31:27.608Z,25.53
2023-05-23T16:33:55.817Z,26.92
2023-05-23T16:36:24.087Z,26.61
2023-05-23T16:38:55.399Z,27.53
2023-05-23T16:41:23.802Z,25.84
2023-05-23T16:43:51.641Z,24.57
2023-05-23T16:46:22.179Z,23.75
2023-05-23T16:48:50.372Z,23.72
2023-05-23T16:51:18.222Z,24.78
2023-05-23T16:53:46.038Z,24.76
2023-05-23T16:56:15.332Z,26.26
2023-05-23T16:58:43.454Z,24.04
2023-05-23T17:01:11.366Z,23.24
2023-05-23T17:03:41.316Z,23.13
2023-05-23T17:06:09.409Z,23.51
2023-05-23T17:08:37.246Z,21.83
2023-05-23T17:11:05.214Z,21.80
2023-05-23T17:13:34.617Z,24.07
2023-05-23T17:16:02.635Z,24.83
2023-05-23T17:18:30.613Z,24.98
2023-05-23T17:20:58.589Z,24.13
2023-05-23T17:23:26.586Z,22.42
2023-05-23T17:25:55.556Z,21.63
2023-05-23T17:28:23.799Z,21.03
2023-05-23T17:30:53.293Z,20.65
2023-05-23T17:33:21.275Z,23.05
2023-05-23T17:35:49.429Z,24.01
2023-05-23T17:38:17.274Z,24.25
2023-05-23T17:40:45.264Z,22.20
2023-05-23T17:43:13.459Z,23.10
2023-05-23T17:45:41.477Z,23.31
2023-05-23T17:48:11.492Z,23.31
2023-05-23T17:50:39.526Z,23.56
2023-05-23T17:53:07.794Z,24.14
2023-05-23T17:55:35.628Z,23.70
2023-05-23T17:58:03.492Z,22.35
2023-05-23T18:00:31.518Z,20.96
2023-05-23T18:02:59.629Z,20.30
2023-05-23T18:05:28.869Z,18.99
2023-05-23T18:07:56.851Z,18.88
2023-05-23T18:10:25.473Z,18.60
2023-05-23T18:12:53.321Z,18.04
2023-05-23T18:15:21.097Z,17.36
2023-05-23T18:17:51.636Z,17.47
2023-05-23T18:20:19.691Z,17.23
2023-05-23T18:22:54.241Z,17.50
2023-05-23T18:25:27.295Z,16.91
2023-05-23T18:27:56.048Z,16.73
2023-05-23T18:30:24.051Z,16.63
2023-05-23T18:32:51.958Z,16.41
2023-05-23T18:35:20.495Z,16.28
2023-05-23T18:37:49.945Z,16.49
2023-05-23T18:40:18.363Z,16.11
2023-05-23T18:42:47.338Z,15.40
2023-05-23T18:45:15.158Z,15.53
2023-05-23T18:47:43.076Z,15.67
2023-05-23T18:50:11.913Z,15.83
2023-05-23T18:52:39.840Z,15.29
2023-05-23T18:55:11.149Z,15.14
2023-05-23T18:57:39.019Z,14.92
2023-05-23T19:00:09.175Z,14.95
2023-05-23T19:02:37.094Z,14.68
2023-05-23T19:05:05.495Z,14.98
2023-05-23T19:07:33.386Z,14.52
2023-05-23T19:10:01.404Z,14.82
2023-05-23T19:12:30.831Z,14.64
2023-05-23T19:14:59.225Z,14.38
2023-05-23T19:17:27.141Z,14.30
2023-05-23T19:19:55.704Z,14.30
2023-05-23T19:22:23.795Z,14.33
2023-05-23T19:24:51.684Z,14.25
2023-05-23T19:27:20.093Z,14.12
2023-05-23T19:29:49.474Z,14.46
2023-05-23T19:32:17.541Z,14.14
2023-05-23T19:34:45.533Z,14.18
2023-05-23T19:37:13.403Z,14.19
2023-05-23T19:39:45.575Z,14.07
2023-05-23T19:42:13.593Z,14.04
2023-05-23T19:44:41.581Z,15.30
2023-05-23T19:47:11.411Z,15.27
2023-05-23T19:49:39.203Z,15.58
2023-05-23T19:52:07.088Z,15.62
2023-05-23T19:54:35.124Z,15.27
2023-05-23T19:57:03.858Z,15.31
2023-05-23T19:59:31.776Z,15.12
2023-05-23T20:01:59.622Z,15.28
2023-05-23T20:04:28.876Z,14.99
2023-05-23T20:06:56.957Z,14.26
2023-05-23T20:09:24.734Z,14.38
2023-05-23T20:11:52.586Z,14.49
2023-05-23T20:14:20.584Z,14.55
2023-05-23T20:16:48.431Z,14.28
2023-05-23T20:19:16.253Z,14.44
2023-05-23T20:21:45.436Z,14.12
2023-05-23T20:24:14.882Z,14.59
2023-05-23T20:26:42.727Z,14.09
2023-05-23T20:29:10.614Z,14.37
2023-05-23T20:31:38.446Z,14.33
2023-05-23T20:34:06.563Z,14.23
2023-05-23T20:36:34.392Z,14.01
2023-05-23T20:39:03.566Z,13.84
2023-05-23T20:41:33.178Z,13.73
2023-05-23T20:44:01.596Z,14.02
2023-05-23T20:46:29.533Z,13.91
2023-05-23T20:48:57.870Z,13.72
2023-05-23T20:51:25.779Z,13.76
2023-05-23T20:53:54.102Z,13.91
2023-05-23T20:56:24.513Z,13.82
2023-05-23T20:58:52.463Z,13.63
2023-05-23T21:01:22.764Z,13.52
2023-05-23T21:03:50.689Z,13.56
2023-05-23T21:06:18.595Z,13.44
2023-05-23T21:08:46.778Z,13.45
2023-05-23T21:11:14.578Z,13.38
2023-05-23T21:13:43.851Z,13.62
2023-05-23T21:16:14.424Z,13.63
2023-05-23T21:18:42.568Z,13.24
2023-05-23T21:21:10.476Z,13.06
2023-05-23T21:23:38.364Z,12.91
2023-05-23T21:26:06.352Z,12.68
2023-05-23T21:28:34.138Z,12.74
2023-05-23T21:31:03.925Z,12.85
2023-05-23T21:33:31.777Z,12.63
2023-05-23T21:36:00.919Z,12.33
2023-05-23T21:38:29.539Z,12.13
2023-05-23T21:40:57.503Z,12.19
2023-05-23T21:43:25.407Z,11.69
2023-05-23T21:45:53.312Z,12.40
2023-05-23T21:48:22.636Z,12.64
2023-05-23T21:50:50.432Z,12.76
2023-05-23T21:53:18.409Z,12.40
2023-05-23T21:55:46.608Z,12.55
2023-05-23T21:58:16.030Z,12.89
2023-05-23T22:00:45.574Z,12.49
2023-05-23T22:03:13.447Z,12.55
2023-05-23T22:05:42.730Z,12.72
2023-05-23T22:08:10.727Z,12.80
2023-05-23T22:10:40.334Z,12.83
2023-05-23T22:13:09.528Z,12.42
2023-05-23T22:15:37.299Z,12.78
2023-05-23T22:18:05.357Z,12.46
2023-05-23T22:20:34.106Z,12.60
2023-05-23T22:23:03.312Z,12.37
2023-05-23T22:25:32.706Z,12.11
2023-05-23T22:28:01.371Z,12.05
2023-05-23T22:30:29.548Z,12.19
2023-05-23T22:32:57.836Z,11.99
2023-05-23T22:35:25.752Z,12.41
2023-05-23T22:37:53.877Z,12.22
2023-05-23T22:40:23.905Z,12.09
2023-05-23T22:42:51.788Z,11.81
2023-05-23T22:45:20.280Z,11.88
2023-05-23T22:47:50.700Z,12.07
2023-05-23T22:50:18.727Z,12.21
2023-05-23T22:52:48.497Z,11.89
2023-05-23T22:55:16.395Z,11.72
2023-05-23T22:57:45.741Z,12.06
2023-05-23T23:00:14.556Z,12.16
2023-05-23T23:02:44.387Z,12.20
2023-05-23T23:05:12.801Z,12.07
2023-05-23T23:07:40.734Z,11.94
2023-05-23T23:10:09.869Z,11.67
2023-05-23T23:12:37.753Z,11.39
2023-05-23T23:15:08.753Z,11.77
2023-05-23T23:17:36.622Z,11.70
2023-05-23T23:20:07.822Z,11.58
2023-05-23T23:22:36.194Z,11.49
2023-05-23T23:25:04.072Z,11.38
2023-05-23T23:27:32.384Z,11.54
2023-05-23T23:30:00.383Z,11.57
2023-05-23T23:32:29.818Z,11.70
2023-05-23T23:34:58.071Z,11.74
2023-05-23T23:37:25.915Z,10.51
2023-05-23T23:39:54.244Z,10.26
2023-05-23T23:42:22.061Z,9.58
2023-05-23T23:44:50.169Z,9.35
2023-05-23T23:47:17.966Z,9.42
2023-05-23T23:49:47.183Z,9.28
2023-05-23T23:52:14.926Z,9.45
2023-05-23T23:54:42.890Z,9.59
2023-05-23T23:57:13.674Z,9.14
2023-05-23T23:59:41.868Z,9.35
